createdAt,value
2019-03-28T00:00:49.496Z,30.45
2019-03-28T00:03:18.815Z,25.80
2019-03-28T00:05:48.070Z,21.10
2019-03-28T00:08:17.619Z,23.32
2019-03-28T00:10:46.907Z,27.75
2019-03-28T00:13:16.223Z,23.65
2019-03-28T00:15:45.835Z,23.52
2019-03-28T00:18:15.149Z,25.62
2019-03-28T00:20:44.744Z,24.70
2019-03-28T00:23:15.679Z,25.10
2019-03-28T00:25:44.966Z,24.67
2019-03-28T00:28:14.267Z,26.25
2019-03-28T00:30:44.350Z,23.98
2019-03-28T00:33:13.827Z,23.90
2019-03-28T00:35:43.116Z,22.15
2019-03-28T00:38:12.416Z,25.02
2019-03-28T00:40:41.699Z,24.63
2019-03-28T00:43:11.002Z,23.87
2019-03-28T00:45:40.274Z,23.95
2019-03-28T00:48:09.570Z,22.40
2019-03-28T00:50:38.854Z,24.40
2019-03-28T00:53:08.434Z,24.20
2019-03-28T00:55:38.043Z,23.22
2019-03-28T00:58:07.337Z,24.60
2019-03-28T01:00:36.935Z,24.65
2019-03-28T01:03:06.226Z,23.38
2019-03-28T01:05:35.510Z,24.67
2019-03-28T01:08:04.819Z,22.87
2019-03-28T01:10:34.107Z,25.20
2019-03-28T01:13:03.759Z,26.55
2019-03-28T01:15:33.128Z,28.42
2019-03-28T01:18:02.423Z,27.75
2019-03-28T01:20:31.741Z,31.40
2019-03-28T01:23:01.024Z,28.92
2019-03-28T01:25:30.415Z,28.95
2019-03-28T01:27:59.695Z,28.05
2019-03-28T01:30:28.987Z,27.00
2019-03-28T01:32:58.292Z,27.98
2019-03-28T01:35:27.601Z,27.70
2019-03-28T01:37:57.167Z,26.40
2019-03-28T01:40:27.698Z,26.50
2019-03-28T01:42:56.985Z,24.82
2019-03-28T01:45:26.279Z,24.25
2019-03-28T01:47:55.635Z,24.30
2019-03-28T01:50:24.945Z,27.48
2019-03-28T01:52:54.522Z,24.87
2019-03-28T01:55:24.114Z,29.77
2019-03-28T01:57:53.398Z,26.60
2019-03-28T02:00:22.698Z,26.90
2019-03-28T02:02:51.989Z,27.40
2019-03-28T02:05:21.522Z,26.75
2019-03-28T02:07:50.847Z,28.10
2019-03-28T02:10:21.467Z,29.05
2019-03-28T02:12:50.755Z,27.85
2019-03-28T02:15:20.378Z,27.77
2019-03-28T02:17:49.654Z,27.00
2019-03-28T02:20:19.058Z,29.30
2019-03-28T02:22:48.361Z,28.15
2019-03-28T02:25:18.723Z,27.70
2019-03-28T02:27:49.240Z,26.35
2019-03-28T02:30:21.919Z,28.02
2019-03-28T02:32:51.593Z,29.35
2019-03-28T02:35:20.994Z,28.42
2019-03-28T02:37:50.532Z,27.80
2019-03-28T02:40:19.843Z,28.42
2019-03-28T02:42:49.143Z,26.37
2019-03-28T02:45:18.462Z,28.32
2019-03-28T02:47:47.763Z,29.05
2019-03-28T02:50:17.047Z,31.60
2019-03-28T02:52:47.455Z,32.75
2019-03-28T02:55:16.798Z,31.75
2019-03-28T02:57:46.263Z,34.23
2019-03-28T03:00:15.984Z,33.30
2019-03-28T03:02:45.298Z,34.78
2019-03-28T03:05:14.651Z,35.73
2019-03-28T03:07:43.948Z,35.10
2019-03-28T03:10:13.373Z,32.55
2019-03-28T03:12:42.671Z,32.25
2019-03-28T03:15:12.351Z,33.92
2019-03-28T03:17:41.931Z,35.23
2019-03-28T03:20:11.526Z,33.38
2019-03-28T03:22:40.819Z,32.15
2019-03-28T03:25:10.548Z,34.43
2019-03-28T03:27:56.341Z,32.33
2019-03-28T03:30:11.082Z,31.17
2019-03-28T03:32:40.405Z,35.10
2019-03-28T03:35:09.980Z,34.78
2019-03-28T03:37:39.280Z,32.20
2019-03-28T03:40:09.238Z,31.48
2019-03-28T03:42:39.847Z,31.40
2019-03-28T03:45:09.820Z,30.48
2019-03-28T03:47:39.265Z,31.97
2019-03-28T03:50:09.371Z,32.50
2019-03-28T03:52:38.676Z,33.80
2019-03-28T03:55:08.138Z,34.30
2019-03-28T03:57:37.678Z,37.03
2019-03-28T04:00:07.523Z,37.10
2019-03-28T04:02:36.955Z,33.28
2019-03-28T04:05:07.522Z,34.45
2019-03-28T04:07:37.144Z,33.80
2019-03-28T04:10:06.969Z,33.23
2019-03-28T04:12:36.263Z,35.45
2019-03-28T04:15:06.968Z,33.55
2019-03-28T04:17:36.276Z,36.20
2019-03-28T04:20:07.104Z,35.60
2019-03-28T04:22:37.137Z,35.35
2019-03-28T04:25:07.029Z,33.58
2019-03-28T04:27:36.431Z,37.00
2019-03-28T04:30:07.806Z,36.50
2019-03-28T04:32:37.413Z,34.13
2019-03-28T04:35:07.046Z,36.25
2019-03-28T04:37:36.358Z,38.40
2019-03-28T04:40:07.127Z,34.45
2019-03-28T04:42:36.440Z,36.73
2019-03-28T04:45:06.288Z,34.98
2019-03-28T04:47:36.271Z,33.70
2019-03-28T04:50:06.554Z,34.20
2019-03-28T04:52:35.859Z,36.03
2019-03-28T04:55:06.752Z,36.60
2019-03-28T04:57:36.041Z,34.15
2019-03-28T05:00:07.979Z,34.90
2019-03-28T05:02:37.262Z,36.17
2019-03-28T05:05:07.847Z,38.25
2019-03-28T05:07:37.136Z,34.85
2019-03-28T05:10:10.407Z,36.38
2019-03-28T05:12:39.764Z,35.20
2019-03-28T05:15:10.699Z,36.20
2019-03-28T05:17:40.499Z,37.65
2019-03-28T05:20:13.147Z,37.25
2019-03-28T05:22:41.393Z,38.55
2019-03-28T05:25:10.853Z,37.38
2019-03-28T05:27:40.149Z,37.08
2019-03-28T05:30:10.379Z,38.08
2019-03-28T05:32:39.663Z,37.58
2019-03-28T05:35:11.123Z,38.48
2019-03-28T05:37:40.418Z,37.03
2019-03-28T05:40:10.997Z,40.08
2019-03-28T05:42:41.728Z,40.03
2019-03-28T05:45:12.002Z,38.80
2019-03-28T05:47:41.337Z,39.78
2019-03-28T05:50:10.722Z,37.88
2019-03-28T05:52:40.011Z,39.15
2019-03-28T05:55:09.734Z,40.15
2019-03-28T05:57:39.090Z,38.73
2019-03-28T06:00:09.151Z,40.55
2019-03-28T06:02:38.458Z,41.00
2019-03-28T06:05:07.939Z,39.75
2019-03-28T06:07:37.578Z,40.78
2019-03-28T06:10:08.510Z,40.70
2019-03-28T06:12:37.820Z,39.48
2019-03-28T06:15:08.054Z,39.83
2019-03-28T06:17:37.341Z,39.70
2019-03-28T06:20:08.179Z,41.50
2019-03-28T06:22:37.483Z,41.18
2019-03-28T06:25:07.190Z,40.43
2019-03-28T06:27:36.486Z,40.50
2019-03-28T06:30:08.173Z,41.28
2019-03-28T06:32:42.909Z,41.50
2019-03-28T06:35:08.541Z,38.42
2019-03-28T06:37:37.835Z,42.40
2019-03-28T06:40:08.774Z,40.52
2019-03-28T06:42:38.327Z,41.37
2019-03-28T06:45:09.328Z,41.23
2019-03-28T06:47:38.875Z,39.90
2019-03-28T06:50:09.239Z,39.55
2019-03-28T06:52:38.550Z,41.60
2019-03-28T06:55:08.072Z,39.67
2019-03-28T06:57:37.391Z,40.92
2019-03-28T07:00:08.674Z,40.43
2019-03-28T07:02:37.993Z,39.53
2019-03-28T07:05:08.188Z,40.45
2019-03-28T07:07:37.478Z,39.85
2019-03-28T07:10:07.209Z,38.50
2019-03-28T07:12:36.518Z,41.88
2019-03-28T07:15:07.739Z,38.63
2019-03-28T07:17:37.077Z,39.20
2019-03-28T07:20:09.029Z,39.80
2019-03-28T07:22:37.708Z,42.78
2019-03-28T07:25:07.427Z,42.30
2019-03-28T07:27:37.024Z,41.53
2019-03-28T07:30:07.748Z,42.30
2019-03-28T07:32:37.106Z,40.23
2019-03-28T07:35:06.967Z,40.05
2019-03-28T07:37:36.254Z,42.03
2019-03-28T07:40:06.411Z,41.42
2019-03-28T07:42:35.714Z,41.42
2019-03-28T07:45:08.426Z,31.02
2019-03-28T07:47:37.725Z,14.07
2019-03-28T07:50:08.961Z,18.70
2019-03-28T07:52:38.271Z,36.37
2019-03-28T07:55:08.106Z,37.70
2019-03-28T07:57:37.417Z,37.47
2019-03-28T08:00:09.591Z,38.00
2019-03-28T08:02:38.949Z,36.77
2019-03-28T08:05:09.623Z,36.80
2019-03-28T08:07:45.011Z,35.20
2019-03-28T08:10:10.340Z,35.87
2019-03-28T08:12:40.724Z,37.73
2019-03-28T08:15:10.796Z,38.20
2019-03-28T08:17:40.092Z,39.00
2019-03-28T08:20:11.143Z,41.13
2019-03-28T08:22:40.444Z,38.60
2019-03-28T08:25:11.990Z,42.27
2019-03-28T08:27:41.663Z,40.20
2019-03-28T08:30:18.914Z,43.57
2019-03-28T08:32:43.267Z,38.67
2019-03-28T08:35:12.733Z,38.03
2019-03-28T08:37:43.161Z,38.17
2019-03-28T08:40:15.562Z,38.37
2019-03-28T08:42:44.931Z,44.73
2019-03-28T08:45:14.247Z,40.00
2019-03-28T08:47:43.540Z,39.80
2019-03-28T08:50:12.842Z,39.67
2019-03-28T08:52:42.148Z,39.23
2019-03-28T08:55:11.603Z,42.13
2019-03-28T08:57:41.206Z,37.33
2019-03-28T09:00:11.792Z,38.73
2019-03-28T09:02:41.160Z,35.87
2019-03-28T09:05:11.524Z,35.27
2019-03-28T09:07:40.808Z,34.53
2019-03-28T09:10:10.352Z,31.97
2019-03-28T09:12:39.643Z,34.37
2019-03-28T09:15:09.481Z,34.60
2019-03-28T09:17:38.775Z,35.37
2019-03-28T09:20:08.890Z,34.53
2019-03-28T09:22:44.765Z,34.90
2019-03-28T09:25:16.772Z,31.90
2019-03-28T09:27:46.619Z,31.67
2019-03-28T09:30:19.008Z,31.97
2019-03-28T09:32:48.300Z,32.50
2019-03-28T09:35:23.298Z,31.33
2019-03-28T09:37:52.936Z,32.70
2019-03-28T09:40:22.313Z,32.00
2019-03-28T09:42:51.623Z,32.20
2019-03-28T09:45:21.502Z,31.40
2019-03-28T09:47:51.063Z,31.40
2019-03-28T09:50:20.687Z,30.47
2019-03-28T09:52:50.005Z,35.07
2019-03-28T09:55:19.297Z,32.87
2019-03-28T09:57:48.605Z,30.97
2019-03-28T10:00:19.146Z,31.00
2019-03-28T10:02:48.804Z,34.47
2019-03-28T10:05:18.207Z,31.00
2019-03-28T10:07:47.519Z,32.30
2019-03-28T10:10:17.125Z,28.07
2019-03-28T10:12:46.445Z,26.60
2019-03-28T10:15:16.411Z,23.00
2019-03-28T10:17:45.736Z,19.77
2019-03-28T10:20:15.066Z,20.73
2019-03-28T10:22:44.373Z,25.03
2019-03-28T10:25:14.542Z,32.60
2019-03-28T10:27:44.184Z,29.87
2019-03-28T10:30:13.823Z,30.13
2019-03-28T10:32:43.127Z,26.93
2019-03-28T10:35:15.985Z,28.63
2019-03-28T10:37:45.288Z,28.67
2019-03-28T10:40:14.585Z,28.17
2019-03-28T10:42:43.880Z,32.47
2019-03-28T10:45:13.672Z,25.20
2019-03-28T10:47:43.050Z,28.10
2019-03-28T10:50:12.720Z,28.93
2019-03-28T10:52:42.027Z,25.47
2019-03-28T10:55:11.324Z,23.70
2019-03-28T10:57:40.655Z,21.77
2019-03-28T11:00:23.131Z,21.80
2019-03-28T11:02:41.315Z,20.30
2019-03-28T11:05:10.668Z,48.97
2019-03-28T11:07:40.264Z,50.60
2019-03-28T11:10:09.892Z,22.67
2019-03-28T11:12:39.246Z,24.20
2019-03-28T11:15:08.675Z,24.70
2019-03-28T11:17:38.270Z,24.77
2019-03-28T11:20:07.803Z,24.13
2019-03-28T11:22:37.105Z,21.60
2019-03-28T11:25:07.350Z,22.93
2019-03-28T11:27:37.345Z,23.30
2019-03-28T11:30:08.680Z,22.93
2019-03-28T11:32:38.116Z,23.13
2019-03-28T11:35:08.920Z,23.80
2019-03-28T11:37:38.626Z,25.13
2019-03-28T11:40:09.871Z,25.23
2019-03-28T11:42:39.583Z,23.10
2019-03-28T11:45:09.946Z,22.47
2019-03-28T11:47:39.362Z,24.67
2019-03-28T11:50:09.437Z,21.87
2019-03-28T11:52:38.721Z,25.53
2019-03-28T11:55:08.949Z,24.77
2019-03-28T11:57:38.241Z,23.40
2019-03-28T12:00:11.429Z,28.43
2019-03-28T12:02:40.978Z,22.27
2019-03-28T12:05:11.521Z,22.90
2019-03-28T12:07:40.821Z,23.53
2019-03-28T12:10:11.733Z,24.27
2019-03-28T12:12:41.042Z,21.63
2019-03-28T12:15:11.453Z,21.97
2019-03-28T12:17:40.740Z,23.07
2019-03-28T12:20:10.763Z,23.07
2019-03-28T12:22:40.366Z,22.03
2019-03-28T12:25:10.078Z,23.13
2019-03-28T12:27:39.380Z,24.47
2019-03-28T12:30:16.053Z,21.17
2019-03-28T12:32:44.444Z,22.10
2019-03-28T12:35:13.828Z,21.83
2019-03-28T12:37:43.432Z,7.53
2019-03-28T12:40:13.599Z,23.60
2019-03-28T12:42:42.907Z,22.40
2019-03-28T12:45:12.879Z,20.57
2019-03-28T12:47:43.272Z,20.80
2019-03-28T12:50:14.144Z,20.67
2019-03-28T12:52:43.459Z,20.30
2019-03-28T12:55:12.954Z,20.87
2019-03-28T12:57:42.265Z,20.87
2019-03-28T13:00:12.822Z,21.87
2019-03-28T13:02:42.139Z,21.17
2019-03-28T13:05:11.903Z,22.20
2019-03-28T13:07:41.198Z,23.43
2019-03-28T13:10:12.303Z,21.30
2019-03-28T13:12:41.578Z,21.40
2019-03-28T13:15:11.447Z,20.90
2019-03-28T13:17:40.756Z,20.23
2019-03-28T13:20:10.124Z,19.27
2019-03-28T13:22:39.751Z,20.50
2019-03-28T13:25:09.296Z,21.10
2019-03-28T13:27:38.870Z,18.37
2019-03-28T13:30:12.958Z,20.00
2019-03-28T13:32:42.595Z,21.27
2019-03-28T13:35:12.155Z,20.10
2019-03-28T13:37:41.821Z,19.90
2019-03-28T13:40:13.441Z,25.90
2019-03-28T13:42:42.757Z,22.57
2019-03-28T13:45:12.599Z,20.50
2019-03-28T13:47:41.900Z,21.23
2019-03-28T13:50:13.125Z,20.97
2019-03-28T13:52:42.409Z,20.90
2019-03-28T13:55:11.873Z,19.00
2019-03-28T13:57:43.436Z,20.23
2019-03-28T14:00:13.988Z,18.90
2019-03-28T14:02:55.664Z,21.10
2019-03-28T14:05:14.964Z,20.13
2019-03-28T14:07:44.274Z,19.17
2019-03-28T14:10:14.012Z,20.40
2019-03-28T14:12:43.606Z,20.73
2019-03-28T14:15:13.027Z,19.70
2019-03-28T14:17:42.342Z,20.23
2019-03-28T14:20:12.072Z,20.47
2019-03-28T14:22:41.383Z,20.63
2019-03-28T14:25:11.019Z,21.50
2019-03-28T14:27:40.316Z,21.13
2019-03-28T14:30:11.666Z,20.57
2019-03-28T14:32:52.640Z,20.13
2019-03-28T14:35:13.375Z,19.03
2019-03-28T14:37:43.446Z,19.00
2019-03-28T14:40:13.282Z,21.73
2019-03-28T14:42:42.984Z,21.03
2019-03-28T14:45:12.697Z,21.60
2019-03-28T14:47:42.029Z,19.20
2019-03-28T14:50:12.078Z,19.93
2019-03-28T14:52:41.392Z,22.37
2019-03-28T14:55:10.757Z,22.20
2019-03-28T14:57:40.905Z,23.27
2019-03-28T15:00:25.239Z,22.67
2019-03-28T15:02:54.584Z,22.33
2019-03-28T15:05:23.887Z,25.13
2019-03-28T15:07:53.197Z,23.30
2019-03-28T15:10:22.512Z,22.50
2019-03-28T15:12:51.882Z,20.70
2019-03-28T15:15:21.184Z,21.40
2019-03-28T15:17:50.499Z,23.30
2019-03-28T15:20:19.818Z,22.03
2019-03-28T15:22:49.122Z,24.40
2019-03-28T15:25:18.692Z,24.80
2019-03-28T15:27:48.414Z,23.67
2019-03-28T15:30:18.384Z,23.23
2019-03-28T15:32:47.699Z,25.20
2019-03-28T15:35:17.355Z,24.17
2019-03-28T15:37:47.351Z,26.50
2019-03-28T15:40:17.127Z,26.83
2019-03-28T15:42:46.889Z,26.50
2019-03-28T15:45:16.197Z,24.17
2019-03-28T15:47:45.909Z,23.47
2019-03-28T15:50:15.490Z,23.90
2019-03-28T15:52:44.776Z,26.30
2019-03-28T15:55:14.810Z,24.80
2019-03-28T15:57:44.483Z,23.27
2019-03-28T16:00:16.212Z,22.10
2019-03-28T16:02:45.531Z,25.90
2019-03-28T16:05:15.191Z,24.47
2019-03-28T16:07:44.483Z,27.70
2019-03-28T16:10:15.022Z,25.60
2019-03-28T16:12:44.488Z,25.90
2019-03-28T16:15:14.823Z,28.30
2019-03-28T16:17:45.107Z,26.97
2019-03-28T16:20:15.193Z,26.30
2019-03-28T16:22:44.520Z,24.73
2019-03-28T16:25:13.838Z,24.63
2019-03-28T16:27:43.136Z,27.03
2019-03-28T16:30:13.934Z,26.23
2019-03-28T16:32:43.261Z,27.53
2019-03-28T16:35:12.887Z,27.63
2019-03-28T16:37:42.179Z,27.23
2019-03-28T16:40:12.127Z,26.43
2019-03-28T16:42:41.811Z,25.67
2019-03-28T16:45:11.664Z,28.50
2019-03-28T16:47:40.959Z,26.90
2019-03-28T16:50:10.692Z,28.00
2019-03-28T16:52:39.980Z,27.80
2019-03-28T16:55:09.447Z,26.07
2019-03-28T16:57:38.740Z,27.97
2019-03-28T17:00:13.897Z,27.30
2019-03-28T17:02:43.459Z,26.00
2019-03-28T17:05:12.894Z,26.00
2019-03-28T17:07:44.479Z,25.83
2019-03-28T17:10:19.731Z,26.10
2019-03-28T17:12:49.015Z,24.90
2019-03-28T17:15:18.644Z,25.90
2019-03-28T17:17:48.251Z,26.57
2019-03-28T17:20:17.553Z,25.47
2019-03-28T17:22:46.872Z,23.60
2019-03-28T17:25:16.465Z,23.30
2019-03-28T17:27:46.660Z,23.57
2019-03-28T17:30:16.497Z,22.77
2019-03-28T17:32:45.821Z,24.73
2019-03-28T17:35:15.427Z,24.20
2019-03-28T17:37:44.741Z,24.10
2019-03-28T17:40:14.174Z,24.20
2019-03-28T17:42:43.508Z,26.10
2019-03-28T17:45:12.940Z,24.23
2019-03-28T17:47:42.258Z,24.40
2019-03-28T17:50:11.956Z,23.70
2019-03-28T17:52:42.569Z,25.73
2019-03-28T17:55:11.951Z,26.13
2019-03-28T17:57:41.286Z,23.80
2019-03-28T18:00:10.974Z,23.90
2019-03-28T18:02:40.601Z,23.60
2019-03-28T18:05:12.871Z,29.60
2019-03-28T18:07:41.200Z,25.70
2019-03-28T18:10:10.701Z,25.00
2019-03-28T18:12:40.371Z,24.87
2019-03-28T18:15:10.088Z,25.93
2019-03-28T18:17:39.438Z,26.40
2019-03-28T18:20:09.433Z,26.43
2019-03-28T18:22:38.736Z,24.73
2019-03-28T18:25:08.229Z,23.63
2019-03-28T18:27:37.912Z,23.30
2019-03-28T18:30:08.497Z,24.07
2019-03-28T18:32:39.619Z,24.53
2019-03-28T18:35:09.186Z,23.90
2019-03-28T18:37:38.556Z,27.17
2019-03-28T18:40:08.299Z,27.57
2019-03-28T18:42:37.609Z,32.73
2019-03-28T18:45:08.439Z,32.60
2019-03-28T18:47:37.733Z,36.10
2019-03-28T18:50:10.192Z,29.53
2019-03-28T18:52:39.804Z,33.17
2019-03-28T18:55:09.344Z,38.00
2019-03-28T18:57:39.127Z,36.30
2019-03-28T19:00:09.793Z,38.00
2019-03-28T19:02:40.730Z,48.10
2019-03-28T19:05:19.540Z,38.00
2019-03-28T19:07:41.604Z,34.00
2019-03-28T19:10:11.842Z,31.10
2019-03-28T19:12:41.343Z,31.70
2019-03-28T19:15:11.397Z,32.93
2019-03-28T19:17:40.697Z,28.90
2019-03-28T19:20:10.494Z,31.63
2019-03-28T19:22:39.843Z,34.70
2019-03-28T19:25:09.924Z,45.17
2019-03-28T19:27:39.660Z,41.33
2019-03-28T19:30:10.664Z,33.33
2019-03-28T19:32:39.976Z,34.27
2019-03-28T19:35:10.562Z,32.90
2019-03-28T19:37:40.703Z,31.67
2019-03-28T19:40:10.654Z,33.83
2019-03-28T19:42:39.959Z,33.37
2019-03-28T19:45:09.636Z,33.40
2019-03-28T19:47:38.967Z,33.77
2019-03-28T19:50:10.944Z,34.80
2019-03-28T19:52:40.628Z,34.50
2019-03-28T19:55:13.016Z,33.10
2019-03-28T19:57:42.382Z,32.13
2019-03-28T20:00:12.461Z,35.83
2019-03-28T20:02:41.756Z,31.53
2019-03-28T20:05:11.142Z,31.60
2019-03-28T20:07:40.438Z,31.53
2019-03-28T20:10:16.167Z,29.77
2019-03-28T20:12:41.693Z,30.77
2019-03-28T20:15:11.137Z,29.80
2019-03-28T20:17:40.815Z,31.97
2019-03-28T20:20:10.215Z,31.53
2019-03-28T20:22:40.628Z,32.10
2019-03-28T20:25:10.072Z,31.10
2019-03-28T20:27:39.374Z,32.20
2019-03-28T20:30:09.272Z,32.50
2019-03-28T20:32:38.914Z,32.50
2019-03-28T20:35:10.733Z,33.60
2019-03-28T20:37:40.744Z,31.57
2019-03-28T20:40:11.899Z,33.47
2019-03-28T20:42:41.195Z,36.57
2019-03-28T20:45:11.404Z,36.27
2019-03-28T20:47:40.703Z,34.27
2019-03-28T20:50:11.048Z,36.67
2019-03-28T20:52:40.344Z,36.83
2019-03-28T20:55:10.020Z,34.55
2019-03-28T20:57:40.533Z,33.95
2019-03-28T21:00:10.804Z,34.75
2019-03-28T21:02:40.247Z,36.60
2019-03-28T21:05:10.547Z,35.57
2019-03-28T21:07:39.840Z,34.23
2019-03-28T21:10:12.230Z,34.97
2019-03-28T21:12:41.817Z,33.13
2019-03-28T21:15:11.618Z,34.80
2019-03-28T21:17:41.804Z,35.10
2019-03-28T21:20:12.647Z,35.43
2019-03-28T21:22:42.311Z,36.98
2019-03-28T21:25:11.716Z,36.13
2019-03-28T21:27:41.019Z,37.10
2019-03-28T21:30:10.484Z,36.60
2019-03-28T21:32:40.037Z,38.15
2019-03-28T21:35:10.032Z,39.50
2019-03-28T21:37:40.509Z,36.70
2019-03-28T21:40:09.877Z,34.90
2019-03-28T21:42:39.230Z,35.50
2019-03-28T21:45:09.041Z,37.17
2019-03-28T21:47:38.377Z,33.95
2019-03-28T21:50:07.922Z,34.18
2019-03-28T21:52:37.576Z,34.35
2019-03-28T21:55:07.516Z,31.17
2019-03-28T21:57:38.099Z,31.23
2019-03-28T22:00:08.383Z,32.55
2019-03-28T22:02:37.759Z,32.63
2019-03-28T22:05:08.914Z,31.80
2019-03-28T22:07:38.328Z,33.92
2019-03-28T22:10:09.154Z,33.10
2019-03-28T22:12:38.955Z,32.63
2019-03-28T22:15:08.463Z,34.55
2019-03-28T22:17:37.887Z,32.48
2019-03-28T22:20:07.443Z,31.30
2019-03-28T22:22:37.835Z,33.80
2019-03-28T22:25:07.769Z,31.62
2019-03-28T22:27:37.087Z,31.93
2019-03-28T22:30:07.529Z,31.55
2019-03-28T22:32:36.851Z,31.87
2019-03-28T22:35:07.814Z,32.13
2019-03-28T22:37:37.150Z,30.00
2019-03-28T22:40:11.482Z,32.78
2019-03-28T22:42:39.375Z,31.93
2019-03-28T22:45:09.179Z,30.20
2019-03-28T22:47:38.735Z,30.25
2019-03-28T22:50:09.600Z,30.00
2019-03-28T22:52:38.939Z,29.07
2019-03-28T22:55:09.092Z,29.77
2019-03-28T22:57:38.476Z,27.13
2019-03-28T23:00:12.075Z,28.85
2019-03-28T23:02:43.276Z,28.38
2019-03-28T23:05:14.937Z,28.05
2019-03-28T23:07:44.372Z,26.33
2019-03-28T23:10:14.053Z,27.58
2019-03-28T23:12:43.885Z,26.20
2019-03-28T23:15:13.439Z,27.87
2019-03-28T23:17:42.778Z,27.82
2019-03-28T23:20:12.304Z,24.27
2019-03-28T23:22:41.671Z,25.95
2019-03-28T23:25:11.214Z,25.52
2019-03-28T23:27:40.593Z,25.57
2019-03-28T23:30:10.039Z,26.77
2019-03-28T23:32:39.333Z,26.20
2019-03-28T23:35:09.080Z,28.12
2019-03-28T23:37:38.370Z,26.42
2019-03-28T23:40:09.017Z,25.85
2019-03-28T23:42:38.312Z,24.32
2019-03-28T23:45:13.039Z,25.17
2019-03-28T23:47:42.404Z,24.10
2019-03-28T23:50:13.100Z,24.72
2019-03-28T23:52:42.848Z,23.95
2019-03-28T23:55:12.478Z,23.80
2019-03-28T23:57:41.769Z,22.50
